Time;durP1;ratioP1;P1;durP2;ratioP2;P2;SDS_P1;SDS_P2;PMS_P1;PMS_P2;Temp;Humidity;BMP_temperature;BMP_pressure;BME280_temperature;BME280_humidity;BME280_pressure;Samples;Min_cycle;Max_cycle;Signal;HPM_P1;HPM_P2
2023/08/04 00:04:30;;;;;;;;;;;15.00;99.90;;;;;;12536122;28;19932;-35
2023/08/04 00:10:32;;;;;;;;;;;15.00;99.90;;;;;;12539745;28;19932;-35
2023/08/04 00:16:34;;;;;;;;;;;15.00;99.90;;;;;;12554711;28;19966;-35
2023/08/04 00:22:37;;;;;;;;;;;15.00;99.90;;;;;;12547459;28;20016;-35
2023/08/04 00:28:39;;;;;;;;;;;15.00;99.90;;;;;;12537924;28;19935;-35
2023/08/04 00:34:40;;;;;;;;;;;14.90;99.90;;;;;;12524364;28;20408;-35
2023/08/04 00:40:42;;;;;;;;;;;14.90;99.90;;;;;;12519027;28;19925;-35
2023/08/04 00:46:44;;;;;;;;;;;14.90;99.90;;;;;;12517408;28;19925;-35
2023/08/04 00:52:46;;;;;;;;;;;14.90;99.90;;;;;;12522720;28;19935;-35
2023/08/04 00:58:48;;;;;;;;;;;14.90;99.90;;;;;;12515743;28;19931;-35
2023/08/04 01:04:50;;;;;;;;;;;14.80;99.90;;;;;;12534319;28;20390;-35
2023/08/04 01:10:54;;;;;;;;;;;14.80;99.90;;;;;;12519764;28;20019;-35
2023/08/04 01:16:56;;;;;;;;;;;14.70;99.90;;;;;;12526062;28;20289;-37
2023/08/04 01:22:58;;;;;;;;;;;14.70;99.90;;;;;;12521569;28;19929;-35
2023/08/04 01:29:00;;;;;;;;;;;14.70;99.90;;;;;;12524678;28;20011;-37
2023/08/04 01:35:03;;;;;;;;;;;14.70;99.90;;;;;;12524706;28;20429;-37
2023/08/04 01:41:05;;;;;;;;;;;14.80;99.90;;;;;;12522149;28;19936;-35
2023/08/04 01:47:07;;;;;;;;;;;14.80;99.90;;;;;;12528630;28;19932;-37
2023/08/04 01:53:09;;;;;;;;;;;14.60;99.90;;;;;;12539737;28;19924;-35
2023/08/04 01:59:11;;;;;;;;;;;14.80;99.90;;;;;;12532164;28;19932;-35
2023/08/04 02:05:13;;;;;;;;;;;14.80;99.90;;;;;;12528129;28;19952;-35
2023/08/04 02:11:15;;;;;;;;;;;14.60;99.90;;;;;;12519146;28;19975;-35
2023/08/04 02:17:18;;;;;;;;;;;14.60;99.90;;;;;;12520549;28;19960;-36
2023/08/04 02:23:19;;;;;;;;;;;14.60;99.90;;;;;;12531820;28;19959;-35
2023/08/04 02:29:21;;;;;;;;;;;14.60;99.90;;;;;;12542498;28;19932;-35
2023/08/04 02:35:23;;;;;;;;;;;14.50;99.90;;;;;;12529775;28;20027;-35
2023/08/04 02:41:24;;;;;;;;;;;14.50;99.90;;;;;;12527079;28;20059;-35
2023/08/04 02:47:27;;;;;;;;;;;14.60;99.90;;;;;;12526585;28;20762;-35
2023/08/04 02:53:29;;;;;;;;;;;14.60;99.90;;;;;;12526731;28;20023;-35
2023/08/04 02:59:31;;;;;;;;;;;14.40;99.90;;;;;;12516350;28;19939;-35
2023/08/04 03:05:36;;;;;;;;;;;14.40;99.90;;;;;;12524546;28;20019;-35
2023/08/04 03:11:37;;;;;;;;;;;14.50;99.90;;;;;;12518948;28;19974;-35
2023/08/04 03:17:39;;;;;;;;;;;14.50;99.90;;;;;;12523355;28;19975;-35
2023/08/04 03:23:41;;;;;;;;;;;14.50;99.90;;;;;;12534307;28;20242;-35
2023/08/04 03:29:42;;;;;;;;;;;14.50;99.90;;;;;;12509381;28;20649;-35
2023/08/04 03:35:44;;;;;;;;;;;14.50;99.90;;;;;;12538708;28;19924;-35
2023/08/04 03:41:46;;;;;;;;;;;14.50;99.90;;;;;;12521459;28;20071;-35
2023/08/04 03:47:48;;;;;;;;;;;14.60;99.90;;;;;;12522040;28;20295;-35
2023/08/04 03:53:50;;;;;;;;;;;14.50;99.90;;;;;;12523980;28;20302;-35
2023/08/04 03:59:53;;;;;;;;;;;14.50;99.90;;;;;;12520172;28;19960;-35
2023/08/04 04:05:55;;;;;;;;;;;14.60;99.90;;;;;;12530162;28;20394;-35
2023/08/04 04:11:57;;;;;;;;;;;14.50;99.90;;;;;;12538401;28;20020;-35
2023/08/04 04:17:58;;;;;;;;;;;14.50;99.90;;;;;;12513948;28;20593;-35
2023/08/04 04:24:00;;;;;;;;;;;14.50;99.90;;;;;;12516528;28;19947;-35
2023/08/04 04:30:02;;;;;;;;;;;14.60;99.90;;;;;;12530369;28;19929;-35
2023/08/04 04:36:04;;;;;;;;;;;14.50;99.90;;;;;;12515335;28;19933;-37
2023/08/04 04:42:06;;;;;;;;;;;14.60;99.90;;;;;;12522606;28;20030;-35
2023/08/04 04:48:07;;;;;;;;;;;14.60;99.90;;;;;;12523029;28;19949;-35
2023/08/04 04:54:09;;;;;;;;;;;14.60;99.90;;;;;;12517333;28;20300;-35
2023/08/04 05:00:12;;;;;;;;;;;14.60;99.90;;;;;;12529800;28;20391;-36
2023/08/04 05:06:13;;;;;;;;;;;14.60;99.90;;;;;;12547985;28;20022;-35
2023/08/04 05:12:15;;;;;;;;;;;14.60;99.90;;;;;;12527829;28;19933;-36
2023/08/04 05:18:18;;;;;;;;;;;14.70;99.90;;;;;;12533152;28;19925;-35
2023/08/04 05:24:20;;;;;;;;;;;14.70;99.90;;;;;;12536757;28;19924;-35
2023/08/04 05:30:21;;;;;;;;;;;14.80;99.90;;;;;;12539948;28;19951;-35
2023/08/04 05:36:23;;;;;;;;;;;14.80;99.90;;;;;;12544288;28;20662;-35
2023/08/04 05:42:25;;;;;;;;;;;14.90;99.90;;;;;;12545401;28;19931;-35
2023/08/04 05:48:26;;;;;;;;;;;14.90;99.90;;;;;;12534706;28;19935;-36
2023/08/04 05:54:28;;;;;;;;;;;15.00;99.90;;;;;;12519772;28;20055;-35
2023/08/04 06:00:30;;;;;;;;;;;15.20;99.90;;;;;;12537442;28;19956;-37
2023/08/04 06:06:32;;;;;;;;;;;15.30;99.90;;;;;;12522641;28;19936;-35
2023/08/04 06:12:33;;;;;;;;;;;15.30;99.90;;;;;;12534315;28;19960;-35
2023/08/04 06:18:35;;;;;;;;;;;15.40;99.90;;;;;;12530261;28;19925;-35
2023/08/04 06:24:37;;;;;;;;;;;15.40;99.90;;;;;;12542468;28;19959;-35
2023/08/04 06:30:39;;;;;;;;;;;15.50;99.90;;;;;;12539243;28;19924;-35
2023/08/04 06:36:44;;;;;;;;;;;15.60;99.90;;;;;;12548245;28;20012;-35
2023/08/04 06:42:45;;;;;;;;;;;15.60;99.90;;;;;;12556616;28;19933;-35
2023/08/04 06:48:47;;;;;;;;;;;15.60;99.90;;;;;;12556309;28;20780;-35
2023/08/04 06:54:49;;;;;;;;;;;15.60;99.90;;;;;;12536785;28;20396;-35
2023/08/04 07:00:51;;;;;;;;;;;15.80;99.90;;;;;;12547154;28;20058;-35
2023/08/04 07:06:56;;;;;;;;;;;15.80;99.90;;;;;;12539959;28;19928;-35
2023/08/04 07:12:58;;;;;;;;;;;15.90;99.90;;;;;;12558239;28;20340;-35
2023/08/04 07:19:00;;;;;;;;;;;16.00;99.90;;;;;;12535048;28;20266;-35
2023/08/04 07:25:01;;;;;;;;;;;16.00;99.90;;;;;;12552057;28;19924;-35
2023/08/04 07:31:09;;;;;;;;;;;16.00;99.90;;;;;;12533452;28;20292;-35
2023/08/04 07:37:11;;;;;;;;;;;16.20;99.90;;;;;;12534893;28;19929;-35
2023/08/04 07:43:13;;;;;;;;;;;16.10;99.90;;;;;;12546415;28;19971;-35
2023/08/04 07:49:15;;;;;;;;;;;16.20;99.90;;;;;;12535683;28;20007;-35
2023/08/04 07:55:17;;;;;;;;;;;16.50;99.90;;;;;;12534412;28;20000;-35
2023/08/04 08:01:18;;;;;;;;;;;16.40;99.90;;;;;;12541237;28;19925;-35
2023/08/04 08:07:20;;;;;;;;;;;16.80;99.90;;;;;;12543171;28;19978;-36
2023/08/04 08:13:40;;;;;;;;;;;17.20;99.90;;;;;;12546070;28;20369;-35
2023/08/04 08:19:42;;;;;;;;;;;17.00;99.90;;;;;;12550887;28;19929;-35
2023/08/04 08:25:44;;;;;;;;;;;16.90;99.90;;;;;;12538725;28;19932;-35
2023/08/04 08:31:45;;;;;;;;;;;17.40;99.90;;;;;;12541515;28;20204;-35
2023/08/04 08:37:48;;;;;;;;;;;17.10;99.90;;;;;;12550268;28;19925;-36
2023/08/04 08:43:49;;;;;;;;;;;17.00;99.90;;;;;;12540621;28;19959;-35
2023/08/04 08:49:55;;;;;;;;;;;17.00;99.90;;;;;;12547264;28;19979;-35
2023/08/04 08:55:59;;;;;;;;;;;17.50;99.90;;;;;;12550145;28;20673;-36
2023/08/04 09:02:01;;;;;;;;;;;17.70;99.90;;;;;;12559194;28;20107;-35
2023/08/04 09:08:03;;;;;;;;;;;17.80;99.90;;;;;;12552258;28;19940;-37
2023/08/04 09:14:05;;;;;;;;;;;17.40;99.90;;;;;;12552027;28;19933;-35
2023/08/04 09:20:09;;;;;;;;;;;17.10;99.90;;;;;;12559399;28;20416;-35
2023/08/04 09:26:10;;;;;;;;;;;17.10;99.90;;;;;;12539047;28;19960;-37
2023/08/04 09:32:13;;;;;;;;;;;17.20;99.90;;;;;;12543104;28;19939;-36
2023/08/04 09:38:15;;;;;;;;;;;17.30;99.90;;;;;;12544844;28;19935;-35
2023/08/04 09:44:16;;;;;;;;;;;17.50;99.90;;;;;;12537802;28;19924;-35
2023/08/04 09:50:18;;;;;;;;;;;17.40;99.90;;;;;;12552305;28;19929;-35
2023/08/04 09:56:21;;;;;;;;;;;17.30;99.90;;;;;;12542722;28;19929;-35
2023/08/04 10:02:23;;;;;;;;;;;17.10;99.90;;;;;;12560992;28;19956;-36
2023/08/04 10:08:32;;;;;;;;;;;17.10;99.90;;;;;;12540499;28;20022;-35
2023/08/04 10:14:34;;;;;;;;;;;17.40;99.90;;;;;;12568743;28;20040;-36
2023/08/04 10:20:36;;;;;;;;;;;18.20;99.90;;;;;;12555570;28;19936;-35
2023/08/04 10:26:48;;;;;;;;;;;18.00;99.90;;;;;;12547285;28;20376;-36
2023/08/04 10:32:50;;;;;;;;;;;18.10;99.90;;;;;;12548414;28;20294;-35
2023/08/04 10:38:54;;;;;;;;;;;18.10;99.90;;;;;;12548295;28;19956;-35
2023/08/04 10:45:03;;;;;;;;;;;18.10;99.90;;;;;;12510043;28;19932;-35
2023/08/04 10:51:05;;;;;;;;;;;18.00;99.90;;;;;;12544540;28;19935;-35
2023/08/04 10:57:07;;;;;;;;;;;18.20;99.90;;;;;;12533237;28;20038;-35
2023/08/04 11:03:17;;;;;;;;;;;18.30;99.90;;;;;;12542021;28;20022;-35
2023/08/04 11:09:19;;;;;;;;;;;18.30;99.90;;;;;;12545271;28;20297;-36
2023/08/04 11:15:21;;;;;;;;;;;19.50;99.90;;;;;;12549561;28;19932;-35
2023/08/04 11:21:23;;;;;;;;;;;19.00;99.90;;;;;;12545721;28;21017;-35
2023/08/04 11:27:25;;;;;;;;;;;18.70;99.90;;;;;;12549827;28;19925;-35
2023/08/04 11:33:27;;;;;;;;;;;18.50;99.90;;;;;;12557318;28;20426;-36
2023/08/04 11:39:29;;;;;;;;;;;18.30;99.90;;;;;;12543248;28;19932;-36
2023/08/04 11:45:31;;;;;;;;;;;18.40;99.90;;;;;;12533747;28;19925;-35
2023/08/04 11:51:33;;;;;;;;;;;19.10;99.90;;;;;;12541452;28;19981;-36
2023/08/04 11:57:35;;;;;;;;;;;19.60;99.90;;;;;;12541456;28;19925;-37
2023/08/04 12:03:44;;;;;;;;;;;19.50;99.90;;;;;;12551028;28;19990;-37
2023/08/04 12:09:46;;;;;;;;;;;19.40;99.90;;;;;;12548479;28;19977;-36
2023/08/04 12:15:51;;;;;;;;;;;19.50;99.90;;;;;;12542779;28;19972;-36
2023/08/04 12:21:58;;;;;;;;;;;20.10;99.90;;;;;;12552026;28;19936;-35
2023/08/04 12:28:00;;;;;;;;;;;19.90;99.90;;;;;;12562048;28;20035;-36
2023/08/04 12:34:02;;;;;;;;;;;19.30;99.90;;;;;;12534962;28;20039;-37
2023/08/04 12:40:04;;;;;;;;;;;19.60;99.90;;;;;;12556876;28;19940;-37
2023/08/04 12:46:05;;;;;;;;;;;20.30;99.90;;;;;;12535959;28;19928;-35
2023/08/04 12:52:07;;;;;;;;;;;20.50;99.90;;;;;;12553250;28;19939;-37
2023/08/04 12:58:09;;;;;;;;;;;20.90;99.90;;;;;;12543725;28;20062;-37
2023/08/04 13:04:11;;;;;;;;;;;20.90;99.90;;;;;;12549724;28;19925;-36
2023/08/04 13:10:13;;;;;;;;;;;21.00;99.90;;;;;;12535210;28;20557;-37
2023/08/04 13:16:15;;;;;;;;;;;21.40;99.90;;;;;;12535136;28;19990;-36
2023/08/04 13:22:17;;;;;;;;;;;21.50;99.90;;;;;;12548358;28;19947;-37
2023/08/04 13:28:19;;;;;;;;;;;21.40;99.90;;;;;;12545214;28;20023;-36
2023/08/04 13:34:21;;;;;;;;;;;21.30;99.90;;;;;;12560773;28;19980;-36
2023/08/04 13:40:22;;;;;;;;;;;21.70;99.90;;;;;;12568224;28;19929;-36
2023/08/04 13:46:24;;;;;;;;;;;21.20;99.90;;;;;;12555163;28;19955;-36
2023/08/04 13:52:26;;;;;;;;;;;21.70;99.90;;;;;;12551923;28;19931;-36
2023/08/04 13:58:28;;;;;;;;;;;22.20;99.90;;;;;;12548821;28;20479;-37
2023/08/04 14:04:30;;;;;;;;;;;22.10;99.90;;;;;;12545979;28;20281;-37
2023/08/04 14:10:32;;;;;;;;;;;22.10;99.90;;;;;;12566521;28;20284;-38
2023/08/04 14:16:34;;;;;;;;;;;22.40;99.90;;;;;;12551267;28;20006;-37
2023/08/04 14:22:39;;;;;;;;;;;22.40;99.90;;;;;;12545953;28;19925;-39
2023/08/04 14:28:41;;;;;;;;;;;22.50;99.90;;;;;;12543082;28;19932;-38
2023/08/04 14:34:43;;;;;;;;;;;22.60;99.90;;;;;;12562657;28;20300;-36
2023/08/04 14:40:45;;;;;;;;;;;22.60;99.90;;;;;;12557517;28;19925;-36
2023/08/04 14:46:47;;;;;;;;;;;22.20;99.90;;;;;;12543671;28;19925;-37
2023/08/04 14:52:49;;;;;;;;;;;22.10;99.90;;;;;;12573156;28;19925;-36
2023/08/04 14:58:51;;;;;;;;;;;22.00;99.90;;;;;;12547512;28;19932;-36
2023/08/04 15:04:55;;;;;;;;;;;20.80;99.90;;;;;;12530096;28;19932;-36
2023/08/04 15:10:59;;;;;;;;;;;19.90;99.90;;;;;;12524333;28;20368;-36
2023/08/04 15:17:01;;;;;;;;;;;19.60;99.90;;;;;;12539807;28;20013;-37
2023/08/04 15:23:02;;;;;;;;;;;19.30;99.90;;;;;;12554731;28;19929;-36
2023/08/04 15:29:06;;;;;;;;;;;19.10;99.90;;;;;;12543619;28;19932;-36
2023/08/04 15:35:08;;;;;;;;;;;19.10;99.90;;;;;;12556974;28;20237;-36
2023/08/04 15:41:10;;;;;;;;;;;18.90;99.90;;;;;;12539085;28;20436;-37
2023/08/04 15:47:11;;;;;;;;;;;18.90;99.90;;;;;;12555239;28;19928;-35
2023/08/04 15:53:14;;;;;;;;;;;18.70;99.90;;;;;;12544476;28;19977;-36
2023/08/04 15:59:15;;;;;;;;;;;18.60;99.90;;;;;;12539956;28;19971;-37
2023/08/04 16:05:19;;;;;;;;;;;18.90;99.90;;;;;;12547021;28;20427;-35
2023/08/04 16:11:21;;;;;;;;;;;18.70;99.90;;;;;;12549093;28;20087;-36
2023/08/04 16:17:22;;;;;;;;;;;18.90;99.90;;;;;;12544359;28;19974;-36
2023/08/04 16:23:24;;;;;;;;;;;18.80;99.90;;;;;;12539303;28;19929;-39
2023/08/04 16:29:26;;;;;;;;;;;18.90;99.90;;;;;;12548839;28;19968;-36
2023/08/04 16:35:28;;;;;;;;;;;18.70;99.90;;;;;;12556709;28;19932;-36
2023/08/04 16:41:30;;;;;;;;;;;18.40;99.90;;;;;;12538576;28;19994;-35
2023/08/04 16:47:32;;;;;;;;;;;17.70;99.90;;;;;;12547176;28;20408;-35
2023/08/04 16:53:33;;;;;;;;;;;17.00;99.90;;;;;;12536596;28;19929;-35
2023/08/04 16:59:36;;;;;;;;;;;16.90;99.90;;;;;;12550636;28;19964;-36
2023/08/04 17:05:37;;;;;;;;;;;16.80;99.90;;;;;;12553675;28;20019;-36
2023/08/04 17:11:39;;;;;;;;;;;16.90;99.90;;;;;;12558325;28;19924;-36
2023/08/04 17:17:41;;;;;;;;;;;16.80;99.90;;;;;;12572053;28;19928;-35
2023/08/04 17:23:43;;;;;;;;;;;16.70;99.90;;;;;;12553014;28;19924;-36
2023/08/04 17:29:44;;;;;;;;;;;16.50;99.90;;;;;;12561292;28;19935;-35
2023/08/04 17:35:46;;;;;;;;;;;16.50;99.90;;;;;;12551289;28;20357;-35
2023/08/04 17:41:48;;;;;;;;;;;16.60;99.90;;;;;;12550869;28;20388;-35
2023/08/04 17:47:49;;;;;;;;;;;17.20;99.90;;;;;;12544559;28;20074;-35
2023/08/04 17:53:51;;;;;;;;;;;17.00;99.90;;;;;;12552475;28;19933;-36
2023/08/04 17:59:53;;;;;;;;;;;16.90;99.90;;;;;;12560692;28;20016;-35
2023/08/04 18:05:56;;;;;;;;;;;16.70;99.90;;;;;;12539289;28;19929;-36
2023/08/04 18:11:58;;;;;;;;;;;16.70;99.90;;;;;;12552561;28;19928;-37
2023/08/04 18:17:59;;;;;;;;;;;16.80;99.90;;;;;;12552756;28;19983;-36
2023/08/04 18:24:02;;;;;;;;;;;16.80;99.90;;;;;;12537392;28;20364;-35
2023/08/04 18:30:05;;;;;;;;;;;17.00;99.90;;;;;;12543980;28;20054;-38
2023/08/04 18:36:06;;;;;;;;;;;16.90;99.90;;;;;;12563948;28;20019;-35
2023/08/04 18:42:08;;;;;;;;;;;17.00;99.90;;;;;;12545021;28;19925;-35
2023/08/04 18:48:10;;;;;;;;;;;16.70;99.90;;;;;;12551968;28;19936;-35
2023/08/04 18:54:11;;;;;;;;;;;16.70;99.90;;;;;;12546193;28;19933;-36
2023/08/04 19:00:13;;;;;;;;;;;16.80;99.90;;;;;;12560899;28;19969;-37
2023/08/04 19:06:15;;;;;;;;;;;16.70;99.90;;;;;;12549715;28;19932;-35
2023/08/04 19:12:17;;;;;;;;;;;16.50;99.90;;;;;;12544707;28;20403;-36
2023/08/04 19:18:19;;;;;;;;;;;16.40;99.90;;;;;;12548089;28;19929;-37
2023/08/04 19:24:21;;;;;;;;;;;16.40;99.90;;;;;;12553517;28;20032;-36
2023/08/04 19:30:22;;;;;;;;;;;16.40;99.90;;;;;;12530893;28;19932;-36
2023/08/04 19:36:24;;;;;;;;;;;16.40;99.90;;;;;;12559435;28;20015;-35
2023/08/04 19:42:26;;;;;;;;;;;16.30;99.90;;;;;;12552500;28;19924;-36
2023/08/04 19:48:28;;;;;;;;;;;16.40;99.90;;;;;;12552676;28;19969;-36
2023/08/04 19:54:30;;;;;;;;;;;16.30;99.90;;;;;;12539165;28;20023;-37
2023/08/04 20:00:32;;;;;;;;;;;16.30;99.90;;;;;;12548654;28;19931;-35
2023/08/04 20:06:33;;;;;;;;;;;16.30;99.90;;;;;;12546034;28;19929;-36
2023/08/04 20:12:35;;;;;;;;;;;16.40;99.90;;;;;;12551423;28;19940;-35
2023/08/04 20:18:37;;;;;;;;;;;16.10;99.90;;;;;;12549342;28;20023;-35
2023/08/04 20:24:39;;;;;;;;;;;16.10;99.90;;;;;;12562264;28;19978;-37
2023/08/04 20:30:41;;;;;;;;;;;16.10;99.90;;;;;;12560037;28;20003;-35
2023/08/04 20:36:42;;;;;;;;;;;15.90;99.90;;;;;;12547132;28;19951;-36
2023/08/04 20:42:44;;;;;;;;;;;15.80;99.90;;;;;;12542852;28;20331;-37
2023/08/04 20:48:46;;;;;;;;;;;15.90;99.90;;;;;;12554965;28;20036;-35
2023/08/04 20:54:48;;;;;;;;;;;16.10;99.90;;;;;;12549275;28;20220;-35
2023/08/04 21:00:50;;;;;;;;;;;16.10;99.90;;;;;;12571245;28;19995;-38
2023/08/04 21:06:53;;;;;;;;;;;16.10;99.90;;;;;;12564654;28;19928;-35
2023/08/04 21:12:55;;;;;;;;;;;16.00;99.90;;;;;;12549853;28;20296;-35
2023/08/04 21:18:56;;;;;;;;;;;16.00;99.90;;;;;;12556092;28;19936;-35
2023/08/04 21:24:58;;;;;;;;;;;16.10;99.90;;;;;;12568387;28;20444;-36
2023/08/04 21:31:00;;;;;;;;;;;16.00;99.90;;;;;;12559054;28;20457;-37
2023/08/04 21:37:02;;;;;;;;;;;16.00;99.90;;;;;;12560017;28;20148;-35
2023/08/04 21:43:04;;;;;;;;;;;15.90;99.90;;;;;;12542680;28;20046;-35
2023/08/04 21:49:05;;;;;;;;;;;15.80;99.90;;;;;;12540454;28;19929;-35
2023/08/04 21:55:07;;;;;;;;;;;15.80;99.90;;;;;;12559041;28;19936;-37
2023/08/04 22:01:10;;;;;;;;;;;15.80;99.90;;;;;;12560825;28;19924;-35
2023/08/04 22:07:11;;;;;;;;;;;15.90;99.90;;;;;;12584535;28;19924;-35
2023/08/04 22:13:13;;;;;;;;;;;15.80;99.90;;;;;;12564822;28;19963;-35
2023/08/04 22:19:16;;;;;;;;;;;15.80;99.90;;;;;;12546063;28;20056;-35
2023/08/04 22:25:18;;;;;;;;;;;15.60;99.90;;;;;;12539219;28;19958;-35
2023/08/04 22:31:20;;;;;;;;;;;15.60;99.90;;;;;;12542323;28;19928;-35
2023/08/04 22:37:22;;;;;;;;;;;15.70;99.90;;;;;;12538395;28;19936;-35
2023/08/04 22:43:24;;;;;;;;;;;15.60;99.90;;;;;;12548125;28;20027;-35
2023/08/04 22:49:26;;;;;;;;;;;15.50;99.90;;;;;;12549110;28;20280;-35
2023/08/04 22:55:28;;;;;;;;;;;15.50;99.90;;;;;;12556368;28;19944;-36
2023/08/04 23:01:29;;;;;;;;;;;15.50;99.90;;;;;;12544479;28;19932;-35
2023/08/04 23:07:31;;;;;;;;;;;15.50;99.90;;;;;;12542004;28;19925;-35
2023/08/04 23:13:33;;;;;;;;;;;15.40;99.90;;;;;;12532375;28;19967;-36
2023/08/04 23:19:34;;;;;;;;;;;15.20;99.90;;;;;;12509812;28;20379;-35
2023/08/04 23:25:37;;;;;;;;;;;15.20;99.90;;;;;;12537557;28;19936;-35
2023/08/04 23:31:39;;;;;;;;;;;15.20;99.90;;;;;;12535170;28;19924;-35
2023/08/04 23:37:41;;;;;;;;;;;15.00;99.90;;;;;;12532339;28;19978;-35
2023/08/04 23:43:42;;;;;;;;;;;15.00;99.90;;;;;;12529920;28;19925;-35
2023/08/04 23:49:44;;;;;;;;;;;15.10;99.90;;;;;;12539187;28;20016;-35
2023/08/04 23:55:46;;;;;;;;;;;14.90;99.90;;;;;;12545739;28;19933;-36
